Time;durP1;ratioP1;P1;durP2;ratioP2;P2;SDS_P1;SDS_P2;PMS_P1;PMS_P2;Temp;Humidity;BMP_temperature;BMP_pressure;BME280_temperature;BME280_humidity;BME280_pressure;Samples;Min_cycle;Max_cycle;Signal;HPM_P1;HPM_P2
2023/01/29 00:01:38;;;;;;;39.17;19.50;;;;;;;-4.18;100.00;103097.72;5052384;28;20108;-75
2023/01/29 00:04:04;;;;;;;39.13;18.75;;;;;;;-4.16;100.00;103101.25;5052975;28;20028;-75
2023/01/29 00:06:30;;;;;;;36.35;19.38;;;;;;;-4.13;100.00;103086.19;5053633;28;20214;-75
2023/01/29 00:08:56;;;;;;;40.08;18.67;;;;;;;-3.94;100.00;103097.72;5053182;28;20070;-75
2023/01/29 00:11:22;;;;;;;37.72;19.40;;;;;;;-3.86;100.00;103091.47;5052935;28;20453;-75
2023/01/29 00:13:48;;;;;;;40.50;19.73;;;;;;;-3.79;100.00;103093.72;5054153;28;20037;-75
2023/01/29 00:16:14;;;;;;;37.88;19.25;;;;;;;-3.76;100.00;103091.38;5043323;28;20016;-75
2023/01/29 00:18:40;;;;;;;41.00;19.45;;;;;;;-3.76;100.00;103078.66;5052600;28;20075;-75
2023/01/29 00:21:11;;;;;;;40.47;19.35;;;;;;;-3.66;100.00;103072.50;5052711;28;20134;-75
2023/01/29 00:23:37;;;;;;;38.95;19.15;;;;;;;-3.63;100.00;103076.19;5053801;28;20027;-75
2023/01/29 00:26:02;;;;;;;36.17;18.70;;;;;;;-3.60;100.00;103078.94;5052099;28;20112;-75
2023/01/29 00:28:27;;;;;;;35.40;18.73;;;;;;;-3.61;100.00;103060.97;5053359;28;20461;-75
2023/01/29 00:30:53;;;;;;;41.80;20.70;;;;;;;-3.54;100.00;103064.03;5052868;28;20025;-75
2023/01/29 00:33:18;;;;;;;39.63;19.20;;;;;;;-3.51;100.00;103063.38;5053024;28;20103;-75
2023/01/29 00:35:43;;;;;;;36.20;18.27;;;;;;;-3.60;100.00;103049.97;5053443;28;20021;-75
2023/01/29 00:38:09;;;;;;;37.72;18.42;;;;;;;-3.56;100.00;103062.19;5031091;28;20571;-75
2023/01/29 00:44:56;;;;;;;40.22;19.30;;;;;;;-3.58;100.00;103056.97;5033036;28;20040;-75
2023/01/29 00:46:07;;;;;;;33.28;17.58;;;;;;;-3.52;100.00;103064.16;5032406;28;20087;-75
2023/01/29 00:48:33;;;;;;;37.83;18.00;;;;;;;-3.52;100.00;103059.06;5032831;28;20038;-75
2023/01/29 00:50:59;;;;;;;39.35;19.55;;;;;;;-3.55;100.00;103054.63;5032412;28;20381;-75
2023/01/29 00:53:24;;;;;;;38.47;18.30;;;;;;;-3.56;100.00;103042.66;5026526;28;20026;-75
2023/01/29 00:55:49;;;;;;;41.88;19.60;;;;;;;-3.66;100.00;103024.97;5033199;28;20025;-75
2023/01/29 00:58:20;;;;;;;39.08;18.48;;;;;;;-3.65;100.00;103031.81;5032905;28;20025;-75
2023/01/29 01:00:46;;;;;;;36.97;18.85;;;;;;;-3.69;100.00;103019.66;5031856;28;20045;-75
2023/01/29 01:03:11;;;;;;;37.33;19.13;;;;;;;-3.65;100.00;103029.28;5032895;28;20405;-75
2023/01/29 01:05:37;;;;;;;40.95;19.40;;;;;;;-3.67;100.00;103027.41;5033214;28;20049;-75
2023/01/29 01:10:19;;;;;;;38.05;19.15;;;;;;;-3.67;100.00;103023.19;5032007;28;20496;-75
2023/01/29 01:10:57;;;;;;;39.50;18.90;;;;;;;-3.69;100.00;103027.31;5032697;28;20045;-75
2023/01/29 01:13:23;;;;;;;35.38;18.73;;;;;;;-3.72;100.00;103029.63;5031659;28;20124;-75
2023/01/29 01:15:48;;;;;;;42.45;19.80;;;;;;;-3.81;100.00;103027.31;5032894;28;20105;-75
2023/01/29 01:18:15;;;;;;;36.33;18.80;;;;;;;-3.82;100.00;103025.56;5031978;28;20046;-75
2023/01/29 01:20:40;;;;;;;38.83;19.10;;;;;;;-3.83;100.00;103033.09;5030763;28;20029;-75
2023/01/29 01:23:05;;;;;;;40.65;19.55;;;;;;;-3.82;100.00;103032.31;5031338;28;20056;-75
2023/01/29 01:25:31;;;;;;;43.47;19.70;;;;;;;-3.79;100.00;103035.97;5029497;28;20049;-75
2023/01/29 01:27:58;;;;;;;40.22;19.33;;;;;;;-3.76;100.00;103032.75;5028350;28;20462;-75
2023/01/29 01:30:25;;;;;;;44.35;19.52;;;;;;;-3.70;100.00;103032.28;5032447;28;20104;-75
2023/01/29 01:32:51;;;;;;;45.17;21.05;;;;;;;-3.67;100.00;103035.94;5032338;28;20072;-75
2023/01/29 01:35:16;;;;;;;40.80;19.00;;;;;;;-3.63;100.00;103043.03;5026841;28;20033;-75
2023/01/29 01:37:42;;;;;;;41.13;19.58;;;;;;;-3.62;100.00;103036.25;5040450;28;20526;-75
2023/01/29 01:40:19;;;;;;;39.60;19.30;;;;;;;-3.59;100.00;103042.44;5052508;28;20021;-75
2023/01/29 01:42:51;;;;;;;42.72;20.70;;;;;;;-3.59;100.00;103044.13;5051722;28;20021;-75
2023/01/29 01:45:29;;;;;;;37.30;18.47;;;;;;;-3.67;100.00;103041.03;5052034;28;20476;-75
2023/01/29 01:47:57;;;;;;;39.17;18.58;;;;;;;-3.75;100.00;103051.47;5052273;28;20689;-75
2023/01/29 01:50:33;;;;;;;40.55;18.48;;;;;;;-3.84;100.00;103031.31;5050708;28;20025;-75
2023/01/29 01:53:25;;;;;;;42.00;20.23;;;;;;;-3.91;100.00;103027.47;5052184;28;20025;-75
2023/01/29 01:56:05;;;;;;;44.78;20.77;;;;;;;-3.93;100.00;103028.13;5051709;28;20033;-75
2023/01/29 01:58:37;;;;;;;41.33;18.85;;;;;;;-4.07;100.00;103012.75;5054117;28;20115;-75
2023/01/29 02:01:07;;;;;;;42.28;21.10;;;;;;;-4.00;100.00;103044.63;5056550;28;20037;-75
2023/01/29 02:09:33;;;;;;;45.58;20.80;;;;;;;-4.17;100.00;103046.00;5047090;28;20174;-75
2023/01/29 02:12:04;;;;;;;43.67;19.20;;;;;;;-4.19;100.00;103044.09;5055929;28;20024;-75
2023/01/29 02:14:30;;;;;;;44.88;20.42;;;;;;;-4.25;100.00;103040.34;5055953;28;20525;-75
2023/01/29 02:16:56;;;;;;;45.65;21.27;;;;;;;-4.26;100.00;103043.66;5055397;28;20027;-75
2023/01/29 02:19:40;;;;;;;46.75;22.02;;;;;;;-4.27;100.00;103047.00;5055819;28;20017;-75
2023/01/29 02:22:31;;;;;;;45.00;22.20;;;;;;;-4.31;100.00;103050.09;5055881;28;20446;-76
2023/01/29 02:25:27;;;;;;;47.22;21.00;;;;;;;-4.30;100.00;103053.53;4997520;28;20033;-75
2023/01/29 02:27:58;;;;;;;46.58;21.33;;;;;;;-4.29;100.00;103056.16;5045340;28;20143;-75
2023/01/29 02:30:39;;;;;;;47.47;22.00;;;;;;;-4.26;100.00;103052.97;5055284;28;20076;-75
2023/01/29 02:33:24;;;;;;;47.45;22.33;;;;;;;-4.20;100.00;103053.41;5055742;28;20101;-75
2023/01/29 02:35:56;;;;;;;49.67;23.23;;;;;;;-4.13;100.00;103059.84;5055139;28;20021;-75
2023/01/29 02:38:57;;;;;;;49.70;22.83;;;;;;;-4.13;100.00;103044.53;5052696;28;20392;-75
2023/01/29 02:41:42;;;;;;;55.17;24.25;;;;;;;-4.01;100.00;103045.44;5038534;28;20037;-75
2023/01/29 02:44:24;;;;;;;50.50;24.52;;;;;;;-3.87;100.00;103054.94;5053965;28;20033;-75
2023/01/29 02:47:02;;;;;;;53.95;23.50;;;;;;;-3.77;100.00;103036.06;5054811;28;20070;-74
2023/01/29 02:49:52;;;;;;;50.90;23.00;;;;;;;-3.68;100.00;103046.91;5053221;28;20060;-75
2023/01/29 02:52:24;;;;;;;51.42;24.35;;;;;;;-3.64;100.00;103046.34;5054350;28;20073;-75
2023/01/29 02:55:11;;;;;;;55.50;25.73;;;;;;;-3.60;100.00;103033.03;5055388;28;20024;-75
2023/01/29 02:57:41;;;;;;;52.85;24.20;;;;;;;-3.57;100.00;103030.69;5055098;28;20048;-75
2023/01/29 03:00:23;;;;;;;55.90;24.98;;;;;;;-3.47;100.00;103041.50;5054349;28;20075;-75
2023/01/29 03:02:59;;;;;;;48.00;23.98;;;;;;;-3.47;100.00;103023.66;5055314;28;20083;-75
2023/01/29 03:05:49;;;;;;;47.13;24.20;;;;;;;-3.42;100.00;103025.75;5054867;28;20468;-75
2023/01/29 03:08:20;;;;;;;51.17;23.60;;;;;;;-3.36;100.00;103027.84;5052893;28;20028;-75
2023/01/29 03:11:01;;;;;;;50.80;24.15;;;;;;;-3.26;100.00;103035.34;5055280;28;20028;-75
2023/01/29 03:13:39;;;;;;;49.65;24.60;;;;;;;-3.35;100.00;103019.41;5053837;28;20028;-75
2023/01/29 03:16:31;;;;;;;53.13;24.52;;;;;;;-3.17;100.00;103043.63;5054225;28;20032;-75
2023/01/29 03:19:20;;;;;;;48.10;23.02;;;;;;;-3.23;100.00;103009.16;5043571;28;20032;-75
2023/01/29 03:21:59;;;;;;;48.03;22.75;;;;;;;-3.12;100.00;103032.03;5054242;28;20025;-75
2023/01/29 03:33:05;;;;;;;43.47;22.90;;;;;;;-3.05;100.00;103020.59;5054087;28;20086;-75
2023/01/29 03:35:36;;;;;;;47.45;24.15;;;;;;;-3.08;100.00;103013.59;5053405;28;20460;-75
2023/01/29 03:38:04;;;;;;;52.67;24.15;;;;;;;-3.01;100.00;103014.88;5054516;28;20124;-75
2023/01/29 03:40:51;;;;;;;46.90;23.45;;;;;;;-2.93;100.00;103023.06;5054240;28;20056;-75
2023/01/29 03:43:35;;;;;;;46.53;22.13;;;;;;;-2.91;100.00;103024.03;5054089;28;20013;-75
2023/01/29 03:46:07;;;;;;;48.97;22.77;;;;;;;-2.91;100.00;103027.50;5041990;28;20033;-75
2023/01/29 03:48:51;;;;;;;45.70;23.15;;;;;;;-2.87;100.00;103028.59;5053293;28;20071;-75
2023/01/29 03:51:44;;;;;;;46.63;22.70;;;;;;;-2.83;100.00;103023.78;5051873;28;20429;-75
2023/01/29 03:55:00;;;;;;;44.28;22.88;;;;;;;-2.79;100.00;103022.31;5054309;28;20108;-75
2023/01/29 03:57:46;;;;;;;45.47;21.88;;;;;;;-2.76;100.00;103014.84;5031187;28;20053;-75
2023/01/29 04:00:37;;;;;;;46.15;22.42;;;;;;;-2.74;100.00;103010.75;5049787;28;20481;-75
2023/01/29 04:03:06;;;;;;;45.83;23.02;;;;;;;-2.70;100.00;103016.94;5041989;28;20063;-75
2023/01/29 04:06:04;;;;;;;44.42;21.58;;;;;;;-2.69;100.00;103006.81;5052963;28;20025;-75
2023/01/29 04:08:33;;;;;;;45.20;22.85;;;;;;;-2.73;100.00;102989.53;5032251;28;20047;-75
2023/01/29 04:11:03;;;;;;;46.53;23.15;;;;;;;-2.66;100.00;102993.34;5053353;28;20021;-75
2023/01/29 04:13:32;;;;;;;49.30;23.33;;;;;;;-2.62;100.00;102992.75;5053888;28;20112;-75
2023/01/29 04:16:00;;;;;;;46.72;22.40;;;;;;;-2.61;100.00;102984.34;5053373;28;20025;-75
2023/01/29 04:18:25;;;;;;;43.88;23.05;;;;;;;-2.56;100.00;102985.50;5053556;28;20063;-75
2023/01/29 04:20:52;;;;;;;52.58;25.45;;;;;;;-2.56;100.00;102984.63;5051179;28;20033;-75
2023/01/29 04:23:25;;;;;;;44.90;23.10;;;;;;;-2.50;100.00;102980.78;5051353;28;20052;-75
2023/01/29 04:26:26;;;;;;;45.20;23.25;;;;;;;-2.44;100.00;102988.84;5053816;28;20029;-75
2023/01/29 04:29:09;;;;;;;46.33;22.33;;;;;;;-2.41;100.00;102980.50;5047432;28;20083;-75
2023/01/29 04:32:15;;;;;;;45.00;23.02;;;;;;;-2.39;100.00;102986.56;5052268;28;20037;-75
2023/01/29 04:34:50;;;;;;;48.55;22.83;;;;;;;-2.36;100.00;102994.44;5023857;28;20067;-75
2023/01/29 04:37:38;;;;;;;45.33;22.52;;;;;;;-2.44;100.00;102962.44;5051508;28;20037;-75
2023/01/29 04:40:22;;;;;;;50.90;25.10;;;;;;;-2.27;100.00;102983.94;5051513;28;20539;-75
2023/01/29 04:43:06;;;;;;;48.67;23.63;;;;;;;-2.25;100.00;102980.69;5052433;28;20024;-75
2023/01/29 04:45:39;;;;;;;48.35;24.73;;;;;;;-2.25;100.00;102978.13;5051561;28;20036;-75
2023/01/29 04:48:19;;;;;;;50.85;23.73;;;;;;;-2.27;100.00;102959.25;5050890;28;20041;-75
2023/01/29 04:51:01;;;;;;;45.80;23.13;;;;;;;-2.23;100.00;102956.09;5051067;28;20025;-75
2023/01/29 04:53:43;;;;;;;50.95;24.45;;;;;;;-2.25;100.00;102955.13;5050611;28;20036;-75
2023/01/29 04:56:19;;;;;;;50.00;24.48;;;;;;;-2.19;100.00;102955.53;5048807;28;20036;-75
2023/01/29 04:58:56;;;;;;;47.78;23.75;;;;;;;-2.20;100.00;102935.84;5050295;28;20119;-75
2023/01/29 05:01:29;;;;;;;50.30;24.67;;;;;;;-2.16;100.00;102940.38;5051804;28;20060;-75
2023/01/29 05:03:56;;;;;;;50.22;25.42;;;;;;;-2.12;100.00;102939.78;5045869;28;20025;-76
2023/01/29 05:06:23;;;;;;;49.72;24.08;;;;;;;-2.09;100.00;102938.19;5048983;28;20037;-75
2023/01/29 05:08:50;;;;;;;48.45;23.60;;;;;;;-2.08;100.00;102933.19;5051037;28;20095;-76
2023/01/29 05:11:17;;;;;;;49.47;25.38;;;;;;;-2.08;100.00;102935.72;5051217;28;20396;-75
2023/01/29 05:13:42;;;;;;;50.33;24.35;;;;;;;-2.04;100.00;102937.69;5050452;28;20124;-75
2023/01/29 05:16:28;;;;;;;46.88;24.63;;;;;;;-2.02;100.00;102931.00;5051256;28;20056;-75
2023/01/29 05:18:54;;;;;;;49.50;25.60;;;;;;;-2.01;100.00;102934.44;5040146;28;20121;-75
2023/01/29 05:21:21;;;;;;;50.20;24.67;;;;;;;-1.98;100.00;102934.63;5050332;28;20108;-75
2023/01/29 05:24:05;;;;;;;51.88;25.90;;;;;;;-1.98;100.00;102934.63;5042923;28;20025;-75
2023/01/29 05:29:15;;;;;;;55.03;25.48;;;;;;;-1.92;100.00;102929.91;5051152;28;20392;-75
2023/01/29 05:31:43;;;;;;;49.90;24.95;;;;;;;-1.93;100.00;102911.13;5051126;28;20024;-75
2023/01/29 05:34:09;;;;;;;54.22;24.77;;;;;;;-1.90;100.00;102918.06;5050913;28;20025;-75
2023/01/29 05:36:34;;;;;;;47.83;24.98;;;;;;;-1.87;100.00;102910.59;5050059;28;20134;-75
2023/01/29 05:39:00;;;;;;;49.75;24.30;;;;;;;-1.94;100.00;102888.00;5050776;28;20051;-75
2023/01/29 05:41:25;;;;;;;52.35;25.33;;;;;;;-1.84;100.00;102908.22;5051737;28;20112;-75
2023/01/29 05:43:50;;;;;;;48.33;24.70;;;;;;;-1.84;100.00;102912.44;5050436;28;20021;-75
2023/01/29 05:46:15;;;;;;;50.70;24.85;;;;;;;-1.76;100.00;102921.47;5049857;28;20120;-75
2023/01/29 05:48:41;;;;;;;55.58;25.05;;;;;;;-1.76;100.00;102921.47;5050244;28;20036;-75
2023/01/29 05:51:06;;;;;;;51.58;26.30;;;;;;;-1.74;100.00;102925.88;5048632;28;20388;-75
2023/01/29 05:53:32;;;;;;;51.05;25.50;;;;;;;-1.72;100.00;102924.28;5050503;28;20033;-76
2023/01/29 05:56:00;;;;;;;49.63;25.67;;;;;;;-1.70;100.00;102927.84;5051353;28;20029;-75
2023/01/29 05:58:25;;;;;;;54.05;26.33;;;;;;;-1.70;100.00;102925.28;5051108;28;20061;-75
2023/01/29 06:00:51;;;;;;;45.83;24.25;;;;;;;-1.67;100.00;102920.34;5052281;28;20490;-75
2023/01/29 06:03:16;;;;;;;56.47;28.48;;;;;;;-1.67;100.00;102924.56;5051267;28;20032;-75
2023/01/29 06:05:41;;;;;;;54.13;26.10;;;;;;;-1.69;100.00;102924.47;5051518;28;20068;-75
2023/01/29 06:08:07;;;;;;;55.47;26.27;;;;;;;-1.64;100.00;102927.31;5051839;28;20024;-75
2023/01/29 06:10:33;;;;;;;48.03;25.85;;;;;;;-1.64;100.00;102940.09;5050950;28;20021;-75
2023/01/29 06:12:59;;;;;;;52.88;26.38;;;;;;;-1.62;100.00;102927.41;5052020;28;20362;-75
2023/01/29 06:15:25;;;;;;;53.72;25.83;;;;;;;-1.62;100.00;102938.53;5051996;28;20009;-75
2023/01/29 06:17:53;;;;;;;55.78;26.35;;;;;;;-1.60;100.00;102930.91;5051255;28;20029;-75
2023/01/29 06:20:18;;;;;;;51.90;26.80;;;;;;;-1.57;100.00;102937.13;5051530;28;20067;-75
2023/01/29 06:22:43;;;;;;;55.53;26.52;;;;;;;-1.56;100.00;102938.88;5050652;28;20071;-75
2023/01/29 06:25:09;;;;;;;57.58;27.42;;;;;;;-1.52;100.00;102953.63;5051951;28;20049;-75
2023/01/29 06:27:34;;;;;;;48.92;24.85;;;;;;;-1.52;100.00;102956.19;5051740;28;20094;-75
2023/01/29 06:29:59;;;;;;;53.75;26.23;;;;;;;-1.55;100.00;102956.00;5051154;28;20029;-75
2023/01/29 06:32:25;;;;;;;59.80;27.95;;;;;;;-1.51;100.00;102951.94;5051581;28;20029;-75
2023/01/29 06:34:52;;;;;;;52.53;26.23;;;;;;;-1.48;100.00;102941.88;5051982;28;20028;-75
2023/01/29 06:37:17;;;;;;;54.65;27.77;;;;;;;-1.47;100.00;102929.22;5050595;28;20041;-75
2023/01/29 06:39:43;;;;;;;52.92;26.65;;;;;;;-1.48;100.00;102914.63;5051354;28;20052;-75
2023/01/29 06:42:08;;;;;;;55.65;28.60;;;;;;;-1.51;100.00;102901.66;5051843;28;20017;-75
2023/01/29 06:44:34;;;;;;;54.25;28.25;;;;;;;-1.44;100.00;102903.81;5054563;28;20048;-76
2023/01/29 06:46:59;;;;;;;53.67;26.95;;;;;;;-1.50;100.00;102887.22;5055111;28;20106;-76
2023/01/29 06:49:24;;;;;;;51.17;26.58;;;;;;;-1.43;100.00;102918.34;5055392;28;20029;-76
2023/01/29 06:51:50;;;;;;;53.33;27.55;;;;;;;-1.42;100.00;102919.22;5054933;28;20029;-76
2023/01/29 06:54:15;;;;;;;56.35;27.05;;;;;;;-1.44;100.00;102897.78;5053708;28;20029;-75
2023/01/29 06:56:40;;;;;;;58.00;28.45;;;;;;;-1.38;100.00;102903.25;5053137;28;20033;-75
2023/01/29 06:59:05;;;;;;;56.47;27.45;;;;;;;-1.46;100.00;102884.03;5049347;28;20485;-75
2023/01/29 07:01:31;;;;;;;53.80;27.67;;;;;;;-1.35;100.00;102892.31;5053562;28;20039;-75
2023/01/29 07:03:58;;;;;;;56.90;27.70;;;;;;;-1.36;100.00;102888.88;5051135;28;20025;-75
2023/01/29 07:06:29;;;;;;;54.88;27.13;;;;;;;-1.34;100.00;102896.63;5050967;28;20031;-75
2023/01/29 07:08:55;;;;;;;53.28;27.23;;;;;;;-1.32;100.00;102895.94;5052229;28;20076;-75
2023/01/29 07:11:20;;;;;;;49.03;25.77;;;;;;;-1.37;100.00;102888.78;5054419;28;20025;-75
2023/01/29 07:13:45;;;;;;;55.42;28.17;;;;;;;-1.31;100.00;102896.81;5053470;28;20083;-75
2023/01/29 07:16:11;;;;;;;52.20;27.02;;;;;;;-1.30;100.00;102904.59;5054901;28;20148;-75
2023/01/29 07:18:36;;;;;;;52.58;27.55;;;;;;;-1.30;100.00;102901.16;5054629;28;20032;-75
2023/01/29 07:21:05;;;;;;;50.55;26.25;;;;;;;-1.30;100.00;102899.47;5054375;28;20083;-75
2023/01/29 07:23:31;;;;;;;51.33;26.05;;;;;;;-1.33;100.00;102904.41;5054615;28;20028;-75
2023/01/29 07:26:00;;;;;;;56.47;28.98;;;;;;;-1.34;100.00;102900.09;5053942;28;20064;-75
2023/01/29 07:28:26;;;;;;;51.75;27.85;;;;;;;-1.37;100.00;102886.22;5054063;28;20029;-75
2023/01/29 07:30:57;;;;;;;54.17;26.92;;;;;;;-1.27;100.00;102912.47;5033356;28;20388;-76
2023/01/29 07:33:23;;;;;;;54.55;27.83;;;;;;;-1.24;100.00;102911.75;5048755;28;20036;-75
2023/01/29 07:35:48;;;;;;;49.97;26.58;;;;;;;-1.32;100.00;102898.50;5054848;28;20021;-75
2023/01/29 07:38:13;;;;;;;50.17;26.02;;;;;;;-1.24;100.00;102907.53;5054078;28;20068;-75
2023/01/29 07:40:39;;;;;;;54.13;27.13;;;;;;;-1.32;100.00;102885.69;5053521;28;20533;-75
2023/01/29 07:43:06;;;;;;;50.17;26.67;;;;;;;-1.22;100.00;102890.56;5053039;28;20029;-75
2023/01/29 07:45:34;;;;;;;56.70;27.55;;;;;;;-1.19;100.00;102892.41;5054264;28;20029;-75
2023/01/29 07:47:59;;;;;;;51.80;26.73;;;;;;;-1.19;100.00;102882.19;5044918;28;20535;-75
2023/01/29 07:50:25;;;;;;;52.35;26.55;;;;;;;-1.24;100.00;102881.03;5049349;28;20029;-75
2023/01/29 07:52:52;;;;;;;57.72;28.40;;;;;;;-1.16;100.00;102901.94;5054526;28;20068;-75
2023/01/29 07:55:18;;;;;;;49.83;27.02;;;;;;;-1.23;100.00;102888.81;5052608;28;20044;-75
2023/01/29 07:57:43;;;;;;;52.90;27.80;;;;;;;-1.14;100.00;102903.81;5053960;28;20056;-75
2023/01/29 08:00:10;;;;;;;51.95;27.27;;;;;;;-1.14;100.00;102902.94;5054406;28;20354;-75
2023/01/29 08:02:36;;;;;;;53.28;26.33;;;;;;;-1.15;100.00;102894.34;5053095;28;20029;-75
2023/01/29 08:05:01;;;;;;;54.50;28.52;;;;;;;-1.07;100.00;102889.69;5045186;28;20117;-75
2023/01/29 08:07:26;;;;;;;47.90;26.40;;;;;;;-1.10;100.00;102886.94;5049336;28;20032;-75
2023/01/29 08:09:51;;;;;;;53.20;27.50;;;;;;;-1.05;100.00;102899.19;5053132;28;20056;-75
2023/01/29 08:12:17;;;;;;;51.60;26.73;;;;;;;-1.03;100.00;102894.19;5053591;28;20017;-75
2023/01/29 08:14:42;;;;;;;54.22;27.15;;;;;;;-1.01;100.00;102884.91;5054001;28;20052;-75
2023/01/29 08:17:07;;;;;;;52.35;26.70;;;;;;;-0.99;100.00;102873.94;5053217;28;20055;-76
2023/01/29 08:19:32;;;;;;;53.38;27.95;;;;;;;-0.93;100.00;102885.34;5053774;28;20017;-75
2023/01/29 08:21:58;;;;;;;49.50;27.60;;;;;;;-0.95;100.00;102872.44;5051826;28;20036;-76
2023/01/29 08:24:23;;;;;;;51.78;26.63;;;;;;;-0.88;100.00;102895.03;5049109;28;20041;-75
2023/01/29 08:26:49;;;;;;;50.72;27.70;;;;;;;-0.89;100.00;102879.56;5052148;28;20044;-76
2023/01/29 08:29:14;;;;;;;50.78;27.75;;;;;;;-0.88;100.00;102876.22;5051796;28;20033;-76
2023/01/29 08:31:39;;;;;;;53.08;26.02;;;;;;;-0.86;100.00;102880.63;5049917;28;20025;-75
2023/01/29 08:34:05;;;;;;;50.50;26.13;;;;;;;-0.83;100.00;102875.69;5051761;28;20483;-76
2023/01/29 08:36:30;;;;;;;46.95;25.60;;;;;;;-0.83;100.00;102880.81;5052660;28;20111;-75
2023/01/29 08:38:55;;;;;;;48.20;26.05;;;;;;;-0.81;100.00;102876.66;5052399;28;20067;-75
2023/01/29 08:41:21;;;;;;;50.83;27.92;;;;;;;-0.87;100.00;102871.19;5052927;28;20491;-75
2023/01/29 08:43:46;;;;;;;47.70;25.20;;;;;;;-0.79;100.00;102875.03;5052601;28;20033;-75
2023/01/29 08:46:11;;;;;;;48.92;25.95;;;;;;;-0.78;100.00;102865.72;5053174;28;20100;-76
2023/01/29 08:48:37;;;;;;;50.15;26.20;;;;;;;-0.82;100.00;102849.28;5053020;28;20028;-76
2023/01/29 08:51:03;;;;;;;45.53;25.23;;;;;;;-0.73;100.00;102854.03;5052320;28;20487;-75
2023/01/29 08:53:28;;;;;;;49.33;26.63;;;;;;;-0.83;100.00;102828.72;5052703;28;20468;-76
2023/01/29 08:55:54;;;;;;;46.53;25.35;;;;;;;-0.66;100.00;102852.69;5050328;28;20052;-76
2023/01/29 08:58:19;;;;;;;46.90;25.15;;;;;;;-0.63;100.00;102857.97;5051393;28;20411;-76
2023/01/29 09:00:45;;;;;;;50.35;26.02;;;;;;;-0.59;100.00;102860.81;5052726;28;20106;-76
2023/01/29 09:03:10;;;;;;;50.67;25.45;;;;;;;-0.63;100.00;102847.72;5052198;28;20055;-75
2023/01/29 09:05:37;;;;;;;47.72;25.40;;;;;;;-0.52;100.00;102864.56;5052141;28;20044;-75
2023/01/29 09:08:03;;;;;;;48.35;25.05;;;;;;;-0.49;100.00;102864.75;5052678;28;20086;-76
2023/01/29 09:10:29;;;;;;;47.33;25.05;;;;;;;-0.44;100.00;102855.59;5052434;28;20017;-76
2023/01/29 09:12:54;;;;;;;46.65;25.08;;;;;;;-0.37;100.00;102864.50;5050943;28;20031;-75
2023/01/29 09:15:20;;;;;;;47.53;25.40;;;;;;;-0.34;100.00;102867.22;5052636;28;20096;-75
2023/01/29 09:17:45;;;;;;;44.50;24.70;;;;;;;-0.31;100.00;102860.59;5052954;28;20479;-75
2023/01/29 09:20:11;;;;;;;46.22;24.42;;;;;;;-0.28;100.00;102854.75;5051809;28;20017;-76
2023/01/29 09:22:36;;;;;;;45.08;24.08;;;;;;;-0.25;100.00;102850.66;5050472;28;20481;-76
2023/01/29 09:25:02;;;;;;;43.97;24.55;;;;;;;-0.31;100.00;102831.50;5051517;28;20503;-76
2023/01/29 09:27:27;;;;;;;46.15;24.25;;;;;;;-0.21;100.00;102836.31;5049146;28;20029;-76
2023/01/29 09:29:52;;;;;;;47.28;24.58;;;;;;;-0.28;100.00;102821.41;5051618;28;20115;-76
2023/01/29 09:32:18;;;;;;;42.85;24.33;;;;;;;-0.10;100.00;102836.88;5052379;28;20112;-76
2023/01/29 09:34:43;;;;;;;39.70;24.15;;;;;;;-0.07;100.00;102842.16;5049784;28;20029;-76
2023/01/29 09:37:08;;;;;;;41.67;23.80;;;;;;;-0.12;100.00;102829.13;5041664;28;20032;-75
2023/01/29 09:39:34;;;;;;;45.53;24.13;;;;;;;-0.03;100.00;102850.09;5049841;28;20029;-75
2023/01/29 09:42:09;;;;;;;43.92;24.05;;;;;;;0.00;100.00;102846.84;5049030;28;20040;-76
2023/01/29 09:45:14;;;;;;;43.63;22.73;;;;;;;0.05;100.00;102847.06;5048155;28;20021;-77
2023/01/29 09:47:40;;;;;;;44.78;25.10;;;;;;;0.08;100.00;102842.97;5048260;28;20040;-77
2023/01/29 09:50:31;;;;;;;41.88;24.63;;;;;;;0.14;100.00;102842.41;5051758;28;20025;-76
2023/01/29 09:53:09;;;;;;;45.22;24.88;;;;;;;0.16;100.00;102836.56;5050094;28;20036;-74
2023/01/29 09:56:01;;;;;;;47.50;25.05;;;;;;;0.20;100.00;102828.19;5050721;28;20064;-73
2023/01/29 09:58:35;;;;;;;43.60;23.55;;;;;;;0.25;100.00;102832.69;5042468;28;20049;-74
2023/01/29 10:01:32;;;;;;;44.75;24.25;;;;;;;0.30;100.00;102831.25;5051035;28;20098;-75
2023/01/29 10:04:16;;;;;;;44.63;24.65;;;;;;;0.33;100.00;102839.09;5050073;28;20098;-75
2023/01/29 10:07:02;;;;;;;43.63;24.75;;;;;;;0.35;100.00;102832.34;5044683;28;20036;-76
2023/01/29 10:10:01;;;;;;;43.20;24.60;;;;;;;0.41;100.00;102832.66;5049307;28;20032;-76
2023/01/29 10:12:52;;;;;;;43.92;23.77;;;;;;;0.47;100.00;102843.22;5049228;28;20104;-76
2023/01/29 10:15:25;;;;;;;42.75;24.90;;;;;;;0.49;100.00;102843.28;5050815;28;20104;-76
2023/01/29 10:18:05;;;;;;;42.53;24.70;;;;;;;0.54;100.00;102846.97;5041981;28;20028;-76
2023/01/29 10:20:49;;;;;;;45.10;25.20;;;;;;;0.58;100.00;102846.31;5045192;28;20043;-75
2023/01/29 10:23:24;;;;;;;44.60;24.63;;;;;;;0.61;100.00;102836.19;5052382;28;20029;-76
2023/01/29 10:25:49;;;;;;;41.90;23.35;;;;;;;0.59;100.00;102828.44;5053280;28;20045;-76
2023/01/29 10:28:30;;;;;;;41.80;24.08;;;;;;;0.68;100.00;102830.56;5055507;28;20021;-78
2023/01/29 10:31:26;;;;;;;43.15;24.45;;;;;;;0.68;100.00;102823.72;5055266;28;20021;-76
2023/01/29 10:33:56;;;;;;;44.78;24.92;;;;;;;0.74;100.00;102837.69;5042519;28;20143;-76
2023/01/29 10:36:27;;;;;;;40.28;23.60;;;;;;;0.76;100.00;102836.94;5052641;28;20036;-77
2023/01/29 10:38:54;;;;;;;40.45;23.52;;;;;;;0.80;100.00;102840.53;5055374;28;20084;-77
2023/01/29 10:41:28;;;;;;;41.22;24.83;;;;;;;0.82;100.00;102828.69;5054552;28;20021;-76
2023/01/29 10:44:12;;;;;;;;;;;;;;;0.89;100.00;102833.28;5051595;28;20499;-76
2023/01/29 10:47:01;;;;;;;43.22;23.02;;;;;;;0.93;100.00;102822.34;5051283;28;19921;-77
2023/01/29 10:49:57;;;;;;;41.65;22.40;;;;;;;0.98;100.00;102828.59;5047109;28;20037;-76
2023/01/29 10:52:34;;;;;;;39.75;22.73;;;;;;;1.01;100.00;102823.56;5041505;28;20061;-77
2023/01/29 10:55:18;;;;;;;45.10;23.80;;;;;;;1.03;100.00;102808.25;5054137;28;20063;-77
2023/01/29 10:58:03;;;;;;;42.80;24.15;;;;;;;1.08;100.00;102812.81;5051733;28;20524;-77
2023/01/29 11:00:37;;;;;;;38.17;22.10;;;;;;;1.11;100.00;102802.69;5054779;28;20059;-76
2023/01/29 11:03:17;;;;;;;41.50;23.25;;;;;;;1.08;100.00;102787.13;5054766;28;20028;-76
2023/01/29 11:06:01;;;;;;;38.58;23.42;;;;;;;1.28;100.00;102802.59;5054260;28;20029;-76
2023/01/29 11:08:50;;;;;;;37.17;21.20;;;;;;;1.10;100.00;102757.22;5044319;28;20041;-76
2023/01/29 11:11:17;;;;;;;35.67;21.10;;;;;;;1.43;100.00;102794.66;5025502;28;20099;-75
2023/01/29 11:13:57;;;;;;;36.97;20.70;;;;;;;1.48;100.00;102790.63;5054474;28;20025;-76
2023/01/29 11:16:29;;;;;;;38.60;20.98;;;;;;;1.48;100.00;102776.09;5051923;28;20707;-75
2023/01/29 11:19:00;;;;;;;33.13;19.50;;;;;;;1.54;100.00;102775.50;5053197;28;20025;-74
2023/01/29 11:21:27;;;;;;;33.67;20.73;;;;;;;1.61;100.00;102762.97;5054800;28;20021;-73
2023/01/29 11:24:15;;;;;;;32.67;20.88;;;;;;;1.70;100.00;102761.59;5051862;28;20021;-73
2023/01/29 11:26:42;;;;;;;34.20;20.02;;;;;;;1.73;100.00;102767.75;5046490;28;20090;-76
2023/01/29 11:29:26;;;;;;;35.25;21.58;;;;;;;1.77;100.00;102750.78;5050541;28;20503;-76
2023/01/29 11:31:51;;;;;;;;;;;;;;;1.78;100.00;102742.25;5055240;28;20034;-76
2023/01/29 11:34:23;;;;;;;34.45;20.48;;;;;;;1.77;100.00;102736.22;5053396;28;20066;-76
2023/01/29 11:36:57;;;;;;;34.67;20.13;;;;;;;1.80;100.00;102738.06;5054431;28;20025;-77
2023/01/29 11:39:26;;;;;;;32.17;19.75;;;;;;;1.80;100.00;102723.50;5053839;28;20033;-76
2023/01/29 11:42:03;;;;;;;35.20;20.45;;;;;;;1.89;99.08;102723.00;5054466;28;20025;-76
2023/01/29 11:44:38;;;;;;;36.83;21.70;;;;;;;1.91;99.53;102705.06;5054499;28;20032;-76
2023/01/29 11:47:24;;;;;;;34.92;19.55;;;;;;;2.05;98.13;102717.66;5053584;28;20102;-76